• Join FlightAware (Why Join?)
  • Login
  • US Flag 
01:19AM EST


 

Airport Tracker/Info


-or-


 

Live Flight TrackerFlight Track Log ✈ N1926Y ✈ 15-Nov-2013 ✈ KGBR - KCDW

Flight Track Log - Related Links

Times and Time Zones

All times are in EST time to prevent confusion due to time zone crossing. See the N1926Y flight status page for this flight to view local times or setup timezone preferences in your user account.

Time Position Orientation Groundspeed Altitude Reporting Facility
EST Latitude Longitude Course Direction KTS MPH feet Rate Location/Type
02:41PM 42.1589 -73.4261 208° Southwest 99 114 3,200  Level Boston Center
02:42PM 42.1344 -73.4439 208° Southwest 110 127 3,700 600 Climbing Boston Center
02:43PM 42.1125 -73.4569 204° Southwest 100 115 4,300 600 Climbing Boston Center
02:43PM 42.1056 -73.4603 200° South 97 112 4,400 180 Climbing Boston Center
02:44PM 42.0864 -73.4750 210° Southwest 102 117 4,500  Climbing Boston Center
02:45PM 42.0550 -73.4956 206° Southwest 120 138 4,500  Level Boston Center
02:46PM 42.0208 -73.5197 208° Southwest 129 148 4,500  Level Boston Center
02:47PM 41.9892 -73.5411 207° Southwest 129 148 4,500  Level Boston Center
02:48PM 41.9586 -73.5614 206° Southwest 123 142 4,500  Level Boston Center
02:49PM 41.9244 -73.5850 207° Southwest 127 146 4,500  Level Boston Center
02:50PM 41.8939 -73.6061 207° Southwest 125 144 4,500  Level Boston Center
02:51PM 41.8625 -73.6272 207° Southwest 127 146 4,500  Level Boston Center
02:52PM 41.8308 -73.6475 206° Southwest 126 145 4,500  Level Boston Center
02:53PM 41.7972 -73.6706 207° Southwest 128 147 4,500  Level Boston Center
02:54PM 41.7664 -73.6914 207° Southwest 123 142 4,500  Level Boston Center
02:55PM 41.7344 -73.7122 206° Southwest 128 147 4,500  Level Boston Center
02:56PM 41.7025 -73.7342 207° Southwest 128 147 4,500  Level Boston Center
02:57PM 41.6681 -73.7572 207° Southwest 129 148 4,500  Level Boston Center
02:58PM 41.6364 -73.7786 207° Southwest 129 148 4,500  Level Boston Center
02:59PM 41.6167 -73.8000 219° Southwest 132 152 4,500  Level New York TRACON
03:00PM 41.5667 -73.8167 194° South 131 151 4,500  Level New York TRACON
03:01PM 41.5500 -73.8333 217° Southwest 131 151 4,500  Level New York TRACON
03:02PM 41.5000 -73.8667 207° Southwest 134 154 4,500  Level New York TRACON
03:03PM 41.4833 -73.8833 217° Southwest 138 159 4,500  Level New York TRACON
03:04PM 41.4500 -73.9000 201° Southwest 132 152 4,500  Level New York TRACON
03:05PM 41.4167 -73.9333 217° Southwest 135 155 4,500  Level New York TRACON
03:06PM 41.3833 -73.9500 201° Southwest 132 152 4,500  Level New York TRACON
03:07PM 41.3500 -73.9667 201° Southwest 134 154 4,500 -360 Level New York TRACON
03:09PM 41.2681 -74.0231 207° Southwest 131 151 3,400 -480 Descending Boston Center
03:10PM 41.2361 -74.0453 208° Southwest 130 150 2,900 -480 Descending Boston Center
03:11PM 41.2000 -74.0683 206° Southwest 133 153 2,500 -240 Descending Boston Center
03:12PM 41.1719 -74.0867 206° Southwest 125 144 2,500  Level Boston Center
03:13PM 41.1433 -74.1075 209° Southwest 125 144 2,500  Level Boston Center
03:14PM 41.1019 -74.1181 191° South 130 150 2,500  Level Boston Center
03:15PM 41.0675 -74.1347 200° South 135 155 2,500 -240 Level Boston Center
03:17PM 41.0367 -74.1608 213° Southwest 132 152 2,100 -420 Descending Boston Center